Time;durP1;ratioP1;P1;durP2;ratioP2;P2;SDS_P1;SDS_P2;PMS_P1;PMS_P2;Temp;Humidity;BMP_temperature;BMP_pressure;BME280_temperature;BME280_humidity;BME280_pressure;Samples;Min_cycle;Max_cycle;Signal;HPM_P1;HPM_P2
2021/06/09 00:01:57;;;;;;;;;;;;;;;;;;;;;
2021/06/09 00:04:48;;;;;;;18.50;14.43;;;18.80;97.30;;;;;;4964027;23;20701;-90
2021/06/09 00:07:57;;;;;;;28.37;15.37;;;18.70;97.30;;;;;;4935174;29;20500;-89
2021/06/09 00:20:28;;;;;;;17.83;13.47;;;18.50;97.30;;;;;;4871637;29;20483;-89
2021/06/09 00:22:56;;;;;;;18.77;13.43;;;18.50;97.30;;;;;;4856538;29;20455;-89
2021/06/09 00:25:24;;;;;;;19.47;14.10;;;18.40;97.30;;;;;;4866909;29;20435;-90
2021/06/09 00:30:31;;;;;;;16.80;13.77;;;18.40;97.30;;;;;;4989381;23;20495;-92
2021/06/09 00:32:58;;;;;;;18.97;13.10;;;18.40;97.30;;;;;;4922797;29;20471;-91
2021/06/09 00:35:26;;;;;;;15.90;12.73;;;18.40;97.30;;;;;;4940663;29;20449;-92
2021/06/09 00:37:55;;;;;;;19.33;13.17;;;18.40;97.30;;;;;;4916310;29;20463;-91
2021/06/09 00:40:21;;;;;;;18.07;13.13;;;18.40;97.30;;;;;;4923662;29;20470;-91
2021/06/09 00:43:18;;;;;;;19.23;13.20;;;18.40;97.30;;;;;;4923454;29;20435;-92
2021/06/09 00:45:46;;;;;;;18.90;12.80;;;18.40;97.30;;;;;;4922388;29;20972;-91
2021/06/09 00:48:13;;;;;;;14.57;11.63;;;18.40;97.30;;;;;;4922059;29;20563;-91
2021/06/09 00:50:42;;;;;;;16.70;13.03;;;18.40;97.30;;;;;;4921392;29;20943;-91
2021/06/09 00:55:51;;;;;;;16.60;13.43;;;18.40;97.30;;;;;;4939179;29;20403;-91
2021/06/09 00:58:17;;;;;;;16.50;12.80;;;18.40;97.30;;;;;;4922149;29;20436;-91
2021/06/09 01:00:45;;;;;;;19.30;13.47;;;18.30;97.30;;;;;;4921855;29;20203;-91
2021/06/09 01:03:11;;;;;;;18.03;13.17;;;18.30;97.30;;;;;;4938445;29;20475;-91
2021/06/09 01:05:37;;;;;;;20.60;13.97;;;18.30;97.30;;;;;;4921411;29;20419;-91
2021/06/09 01:08:06;;;;;;;17.23;13.50;;;18.30;97.30;;;;;;4920771;29;20253;-92
2021/06/09 01:10:32;;;;;;;21.33;12.13;;;18.30;97.30;;;;;;4920431;29;20210;-91
2021/06/09 01:13:02;;;;;;;19.40;13.57;;;18.30;97.30;;;;;;4906256;29;20512;-91
2021/06/09 01:15:28;;;;;;;15.80;11.70;;;18.30;97.30;;;;;;4915222;29;20519;-91
2021/06/09 01:17:55;;;;;;;18.53;12.67;;;18.30;97.30;;;;;;4921521;29;20521;-91
2021/06/09 01:20:21;;;;;;;19.07;12.27;;;18.20;97.30;;;;;;4921624;29;20432;-91
2021/06/09 01:22:47;;;;;;;14.70;12.13;;;18.20;97.30;;;;;;4921635;29;20430;-91
2021/06/09 01:25:17;;;;;;;20.53;12.63;;;18.20;97.30;;;;;;4921961;29;20461;-91
2021/06/09 01:27:43;;;;;;;18.20;13.17;;;18.20;97.30;;;;;;4921765;29;20501;-91
2021/06/09 01:30:12;;;;;;;17.57;12.40;;;18.10;97.30;;;;;;4920774;29;20555;-92
2021/06/09 01:32:38;;;;;;;14.63;10.67;;;18.10;97.30;;;;;;4902973;29;20194;-91
2021/06/09 01:35:05;;;;;;;17.83;12.37;;;18.10;97.30;;;;;;4903861;29;20531;-92
2021/06/09 01:37:33;;;;;;;21.60;12.60;;;18.10;97.30;;;;;;4920865;29;20225;-92
2021/06/09 01:40:05;;;;;;;23.13;12.47;;;18.00;97.30;;;;;;4906732;29;20462;-92
2021/06/09 01:42:31;;;;;;;19.30;12.77;;;18.00;97.30;;;;;;4908191;29;20807;-91
2021/06/09 01:44:57;;;;;;;18.83;12.33;;;18.00;97.30;;;;;;4909380;29;20428;-92
2021/06/09 01:47:25;;;;;;;14.07;10.70;;;18.00;97.30;;;;;;4943101;29;20474;-92
2021/06/09 01:49:51;;;;;;;17.10;12.17;;;18.00;97.30;;;;;;4926499;29;20645;-91
2021/06/09 01:52:20;;;;;;;17.50;11.70;;;17.90;97.30;;;;;;4907177;29;20420;-92
2021/06/09 01:54:46;;;;;;;17.00;9.70;;;17.90;97.30;;;;;;4924268;29;20412;-92
2021/06/09 01:57:13;;;;;;;14.50;11.20;;;17.90;97.30;;;;;;4920000;29;20428;-90
2021/06/09 01:59:41;;;;;;;14.37;11.40;;;17.90;97.30;;;;;;4924985;29;20439;-91
2021/06/09 02:02:07;;;;;;;15.20;10.80;;;17.90;97.30;;;;;;4925009;29;20442;-91
2021/06/09 02:04:33;;;;;;;15.30;11.10;;;17.90;97.30;;;;;;4924633;29;20420;-91
2021/06/09 02:07:01;;;;;;;18.53;10.00;;;17.90;97.30;;;;;;4924906;29;20749;-91
2021/06/09 02:09:27;;;;;;;17.70;11.40;;;17.80;97.30;;;;;;4915029;29;20832;-91
2021/06/09 02:11:55;;;;;;;13.37;10.90;;;17.80;97.30;;;;;;4905986;29;20483;-92
2021/06/09 02:14:22;;;;;;;12.23;9.90;;;17.80;97.30;;;;;;4920314;29;20570;-91
2021/06/09 02:16:50;;;;;;;21.47;11.43;;;17.80;97.30;;;;;;4924652;29;20487;-91
2021/06/09 02:19:16;;;;;;;14.70;10.27;;;17.80;97.30;;;;;;4924108;29;20530;-91
2021/06/09 02:21:43;;;;;;;12.90;10.27;;;17.70;97.30;;;;;;4924245;29;20419;-91
2021/06/09 02:24:09;;;;;;;14.60;10.33;;;17.70;97.30;;;;;;4924301;29;20563;-91
2021/06/09 02:26:37;;;;;;;12.40;10.23;;;17.70;97.30;;;;;;4924909;29;20419;-91
2021/06/09 02:29:04;;;;;;;15.30;9.53;;;17.70;97.30;;;;;;4908167;29;20471;-91
2021/06/09 02:31:33;;;;;;;12.73;10.30;;;17.70;97.30;;;;;;4905905;29;20420;-92
2021/06/09 02:34:13;;;;;;;16.30;10.70;;;17.70;97.30;;;;;;4922912;29;20891;-92
2021/06/09 02:36:41;;;;;;;12.63;8.80;;;17.70;97.30;;;;;;4905759;29;20428;-92
2021/06/09 02:39:06;;;;;;;11.60;9.13;;;17.70;97.30;;;;;;4905721;29;20511;-91
2021/06/09 02:41:34;;;;;;;11.30;9.03;;;17.60;97.30;;;;;;4905937;29;20844;-91
2021/06/09 02:44:05;;;;;;;12.53;9.90;;;17.60;97.30;;;;;;4906030;29;20185;-91
2021/06/09 02:46:37;;;;;;;11.90;9.83;;;17.60;97.30;;;;;;4905976;29;20552;-90
2021/06/09 02:49:16;;;;;;;12.67;9.67;;;17.60;97.30;;;;;;4906244;29;20447;-91
2021/06/09 02:51:45;;;;;;;15.33;9.80;;;17.60;97.30;;;;;;4906126;29;20416;-91
2021/06/09 02:54:24;;;;;;;18.33;9.70;;;17.60;97.30;;;;;;4906754;29;20425;-91
2021/06/09 02:56:59;;;;;;;12.87;9.40;;;17.60;97.30;;;;;;4906670;29;20444;-92
2021/06/09 02:59:56;;;;;;;12.93;9.77;;;17.60;97.30;;;;;;4917028;29;20477;-92
2021/06/09 03:02:27;;;;;;;13.00;9.60;;;17.60;97.30;;;;;;4925848;29;20451;-92
2021/06/09 03:05:01;;;;;;;15.60;10.00;;;17.60;97.30;;;;;;4925362;29;20419;-90
2021/06/09 03:07:34;;;;;;;14.73;9.77;;;17.60;97.30;;;;;;4941545;29;20451;-91
2021/06/09 03:10:12;;;;;;;12.90;9.90;;;17.60;97.30;;;;;;4924001;29;20443;-91
2021/06/09 03:12:47;;;;;;;15.17;9.30;;;17.60;97.30;;;;;;4923632;29;21004;-92
2021/06/09 03:15:17;;;;;;;14.53;10.20;;;17.60;97.30;;;;;;4920694;29;20435;-91
2021/06/09 03:33:56;;;;;;;15.57;9.83;;;17.60;97.30;;;;;;5120018;23;20546;-91
2021/06/09 03:36:46;;;;;;;14.00;10.27;;;17.60;97.30;;;;;;4921385;29;20436;-92
2021/06/09 03:39:18;;;;;;;14.20;10.93;;;17.70;97.30;;;;;;4922584;29;20491;-92
2021/06/09 03:41:55;;;;;;;13.23;9.87;;;17.70;97.30;;;;;;4923956;29;20460;-92
2021/06/09 03:44:33;;;;;;;13.73;10.13;;;17.70;97.30;;;;;;4923894;29;20439;-92
2021/06/09 03:47:02;;;;;;;13.97;10.47;;;17.70;97.30;;;;;;4924739;29;20478;-92
2021/06/09 03:49:28;;;;;;;13.50;10.20;;;17.70;97.30;;;;;;4917107;29;20545;-92
2021/06/09 03:51:55;;;;;;;16.07;10.60;;;17.70;97.30;;;;;;4920106;29;20468;-93
2021/06/09 03:54:24;;;;;;;18.83;10.80;;;17.70;97.30;;;;;;4904639;29;20421;-92
2021/06/09 03:56:53;;;;;;;14.50;10.83;;;17.70;97.30;;;;;;4904698;29;20916;-93
2021/06/09 03:59:24;;;;;;;14.70;10.13;;;17.70;97.30;;;;;;4918590;29;21052;-92
2021/06/09 04:01:54;;;;;;;15.27;10.30;;;17.70;97.30;;;;;;4924484;29;20587;-92
2021/06/09 04:04:38;;;;;;;13.90;10.63;;;17.70;97.30;;;;;;4924400;29;20437;-91
2021/06/09 04:07:07;;;;;;;12.27;9.50;;;17.80;97.30;;;;;;4924437;29;20444;-92
2021/06/09 04:09:34;;;;;;;14.70;9.73;;;17.80;97.30;;;;;;4924177;29;21018;-92
2021/06/09 04:12:38;;;;;;;14.40;10.10;;;17.80;97.30;;;;;;4924027;29;20420;-92
2021/06/09 04:15:47;;;;;;;12.97;9.97;;;17.90;97.30;;;;;;4922638;29;20442;-92
2021/06/09 04:23:55;;;;;;;15.20;11.27;;;17.90;97.30;;;;;;5195588;23;20503;-92
2021/06/09 04:26:24;;;;;;;11.93;10.60;;;17.90;97.30;;;;;;4899623;29;20520;-92
2021/06/09 04:29:04;;;;;;;17.30;12.20;;;17.90;97.30;;;;;;4892190;29;20471;-92
2021/06/09 04:31:37;;;;;;;18.20;11.40;;;17.90;97.30;;;;;;4903849;29;20428;-92
2021/06/09 04:34:05;;;;;;;15.10;11.20;;;17.90;97.30;;;;;;4903885;29;20413;-92
2021/06/09 04:36:48;;;;;;;15.30;10.17;;;17.90;97.30;;;;;;4903921;29;20432;-91
2021/06/09 04:39:14;;;;;;;14.87;11.20;;;17.90;97.30;;;;;;4903655;29;20455;-90
2021/06/09 04:41:46;;;;;;;14.10;10.03;;;17.90;97.30;;;;;;4919644;29;20421;-90
2021/06/09 04:44:14;;;;;;;14.03;10.53;;;17.90;97.30;;;;;;4902689;29;20181;-90
2021/06/09 04:46:43;;;;;;;16.77;10.70;;;17.90;97.30;;;;;;4902411;29;20405;-90
2021/06/09 04:49:08;;;;;;;18.90;10.33;;;18.00;97.30;;;;;;4901770;29;21021;-90
2021/06/09 04:51:36;;;;;;;20.63;10.27;;;18.00;97.30;;;;;;4902628;29;20480;-90
2021/06/09 04:54:06;;;;;;;13.10;10.10;;;18.00;97.30;;;;;;4923518;29;20204;-90
2021/06/09 04:56:35;;;;;;;14.97;9.70;;;18.00;97.30;;;;;;4917119;29;20811;-90
2021/06/09 04:59:05;;;;;;;13.73;10.00;;;18.10;97.30;;;;;;4904217;29;20440;-89
2021/06/09 05:01:31;;;;;;;10.70;9.20;;;18.10;97.30;;;;;;4902231;29;20761;-90
2021/06/09 05:03:58;;;;;;;19.53;8.73;;;18.10;97.30;;;;;;4902490;29;20416;-90
2021/06/09 05:06:23;;;;;;;14.40;10.30;;;18.10;97.30;;;;;;4903051;29;20421;-90
2021/06/09 05:08:50;;;;;;;14.83;10.33;;;18.10;97.30;;;;;;4901634;29;20546;-90
2021/06/09 05:11:45;;;;;;;16.60;10.67;;;18.10;97.30;;;;;;4902139;29;20218;-90
2021/06/09 05:20:31;;;;;;;13.33;9.80;;;18.10;97.30;;;;;;4938241;23;20538;-77
2021/06/09 05:23:25;;;;;;;14.90;9.47;;;18.10;97.30;;;;;;4916642;29;20419;-77
2021/06/09 05:25:51;;;;;;;11.40;8.70;;;18.10;97.30;;;;;;4915892;29;20483;-78
2021/06/09 05:28:19;;;;;;;11.30;8.53;;;18.20;97.30;;;;;;4916644;29;20490;-77
2021/06/09 05:30:46;;;;;;;10.87;7.60;;;18.20;97.30;;;;;;4916220;29;20483;-77
2021/06/09 05:33:12;;;;;;;11.27;8.30;;;18.30;97.30;;;;;;4916481;29;20793;-77
2021/06/09 05:35:38;;;;;;;10.27;7.90;;;18.30;97.30;;;;;;4915121;29;20423;-77
2021/06/09 05:38:04;;;;;;;12.43;7.87;;;18.30;97.30;;;;;;4915878;29;20438;-78
2021/06/09 05:40:31;;;;;;;10.93;7.80;;;18.40;97.30;;;;;;4915519;29;20179;-78
2021/06/09 05:42:57;;;;;;;13.07;8.20;;;18.50;97.30;;;;;;4916472;29;20428;-77
2021/06/09 05:45:28;;;;;;;15.50;9.00;;;18.50;97.30;;;;;;4911574;29;20443;-77
2021/06/09 05:47:54;;;;;;;53.47;19.27;;;18.50;97.30;;;;;;4897550;29;20467;-78
2021/06/09 05:50:25;;;;;;;74.37;22.50;;;18.60;97.30;;;;;;4896968;29;20425;-78
2021/06/09 05:52:52;;;;;;;16.23;9.77;;;18.60;97.30;;;;;;4901258;29;20854;-78
2021/06/09 05:55:27;;;;;;;84.20;23.97;;;18.60;97.30;;;;;;4902415;29;20432;-79
2021/06/09 05:57:55;;;;;;;13.17;9.00;;;18.70;97.30;;;;;;4897318;29;20430;-78
2021/06/09 06:00:23;;;;;;;15.37;9.37;;;18.70;97.30;;;;;;4915893;29;20424;-78
2021/06/09 06:02:50;;;;;;;13.47;9.37;;;18.70;97.30;;;;;;4916113;29;20462;-78
2021/06/09 06:05:18;;;;;;;20.97;11.23;;;18.70;97.30;;;;;;4915406;29;20951;-78
2021/06/09 06:07:44;;;;;;;12.07;8.97;;;18.80;97.30;;;;;;4915681;29;20464;-78
2021/06/09 06:10:11;;;;;;;11.93;8.90;;;18.80;97.30;;;;;;4908744;29;20426;-78
2021/06/09 06:12:41;;;;;;;15.57;9.40;;;18.90;97.30;;;;;;4897346;29;20448;-78
2021/06/09 06:15:09;;;;;;;12.10;8.10;;;18.90;97.30;;;;;;4897499;29;20423;-78
2021/06/09 06:17:39;;;;;;;77.93;23.50;;;18.90;97.30;;;;;;4897194;29;20523;-78
2021/06/09 06:20:12;;;;;;;11.43;7.83;;;19.00;97.30;;;;;;4896745;29;20563;-78
2021/06/09 06:22:38;;;;;;;14.20;9.50;;;19.00;97.30;;;;;;4897800;29;20717;-79
2021/06/09 06:25:04;;;;;;;14.50;9.97;;;19.10;97.30;;;;;;4909245;29;20832;-78
2021/06/09 06:27:30;;;;;;;32.60;14.30;;;19.10;97.30;;;;;;4918873;29;20473;-78
2021/06/09 06:29:56;;;;;;;13.27;9.40;;;19.10;97.30;;;;;;4919761;29;20420;-78
2021/06/09 06:32:23;;;;;;;11.70;8.57;;;19.10;97.30;;;;;;4919729;29;20446;-78
2021/06/09 06:34:51;;;;;;;10.57;8.20;;;19.10;97.30;;;;;;4918938;29;20184;-78
2021/06/09 06:37:18;;;;;;;8.30;7.80;;;19.10;97.30;;;;;;4919650;29;20431;-78
2021/06/09 06:39:44;;;;;;;12.17;9.03;;;19.10;97.30;;;;;;4903269;29;20429;-78
2021/06/09 06:42:11;;;;;;;10.97;7.80;;;19.20;97.30;;;;;;4901902;29;20508;-78
2021/06/09 06:44:40;;;;;;;13.80;8.83;;;19.30;97.30;;;;;;4900317;29;20420;-78
2021/06/09 06:47:06;;;;;;;11.10;7.70;;;19.40;97.30;;;;;;4916991;29;20874;-77
2021/06/09 06:49:33;;;;;;;10.50;7.50;;;19.40;97.30;;;;;;4901475;29;20936;-78
2021/06/09 06:51:58;;;;;;;14.43;7.40;;;19.50;97.30;;;;;;4900646;29;20440;-78
2021/06/09 06:54:25;;;;;;;14.67;7.60;;;19.60;97.30;;;;;;4901148;29;20511;-78
2021/06/09 06:56:54;;;;;;;12.07;8.40;;;19.60;97.30;;;;;;4900146;29;20213;-77
2021/06/09 06:59:24;;;;;;;9.60;7.27;;;19.70;97.30;;;;;;4900086;29;20432;-77
2021/06/09 07:01:50;;;;;;;11.83;5.90;;;19.70;97.30;;;;;;4899923;29;20444;-77
2021/06/09 07:04:17;;;;;;;15.07;7.10;;;19.70;97.30;;;;;;4908786;29;20429;-77
2021/06/09 07:06:44;;;;;;;9.73;6.97;;;19.80;97.30;;;;;;4907761;29;20204;-78
2021/06/09 07:09:11;;;;;;;9.40;5.80;;;19.80;97.30;;;;;;4900394;29;20453;-78
2021/06/09 07:11:38;;;;;;;9.37;6.30;;;19.90;97.30;;;;;;4910496;29;20441;-78
2021/06/09 07:14:05;;;;;;;14.97;6.37;;;19.90;97.30;;;;;;4918049;29;20510;-78
2021/06/09 07:16:32;;;;;;;9.30;6.30;;;20.00;97.30;;;;;;4914673;29;20424;-78
2021/06/09 07:19:00;;;;;;;8.30;5.90;;;20.10;97.30;;;;;;4918439;29;20463;-78
2021/06/09 07:21:25;;;;;;;9.97;5.23;;;20.10;96.90;;;;;;4918485;29;20495;-76
2021/06/09 07:23:52;;;;;;;11.20;6.43;;;20.20;97.10;;;;;;4936055;29;20412;-76
2021/06/09 07:26:19;;;;;;;8.57;5.80;;;20.30;97.00;;;;;;4918615;29;20180;-76
2021/06/09 07:28:50;;;;;;;10.23;6.17;;;20.40;96.90;;;;;;4918293;29;20517;-76
2021/06/09 07:31:21;;;;;;;7.33;5.30;;;20.40;96.90;;;;;;4915920;29;20432;-76
2021/06/09 07:33:47;;;;;;;9.10;5.73;;;20.50;96.90;;;;;;4903983;29;20516;-76
2021/06/09 07:36:15;;;;;;;12.03;6.10;;;20.60;95.20;;;;;;4916341;29;20409;-76
2021/06/09 07:38:46;;;;;;;12.03;5.90;;;20.70;96.20;;;;;;4917223;29;20487;-76
2021/06/09 07:41:14;;;;;;;7.93;5.77;;;20.70;94.50;;;;;;4898999;29;20523;-76
2021/06/09 07:43:42;;;;;;;11.17;5.47;;;20.70;95.20;;;;;;4899208;29;20424;-76
2021/06/09 07:46:12;;;;;;;7.90;5.70;;;20.70;95.70;;;;;;4913959;29;20432;-76
2021/06/09 07:48:40;;;;;;;12.57;6.33;;;20.80;94.50;;;;;;4918071;29;20467;-76
2021/06/09 07:51:10;;;;;;;10.07;6.13;;;20.80;95.80;;;;;;4916105;29;20446;-76
2021/06/09 07:53:37;;;;;;;11.80;5.70;;;20.70;95.10;;;;;;4900128;29;20424;-76
2021/06/09 07:56:04;;;;;;;7.60;5.43;;;20.80;95.70;;;;;;4935457;29;20423;-76
2021/06/09 07:58:32;;;;;;;13.00;6.40;;;20.80;95.60;;;;;;4917820;29;20419;-75
2021/06/09 08:01:00;;;;;;;9.10;5.80;;;20.90;96.70;;;;;;4917407;29;20442;-75
2021/06/09 08:03:29;;;;;;;9.03;5.90;;;20.90;96.10;;;;;;4918171;29;21019;-75
2021/06/09 08:05:58;;;;;;;8.13;5.50;;;20.90;96.70;;;;;;4920768;29;20539;-75
2021/06/09 08:08:24;;;;;;;6.07;5.13;;;20.90;95.60;;;;;;4898515;29;20988;-75
2021/06/09 08:10:51;;;;;;;12.63;5.60;;;21.00;96.00;;;;;;4898532;29;20445;-75
2021/06/09 08:13:17;;;;;;;9.20;6.57;;;21.00;96.40;;;;;;4898829;29;20905;-75
2021/06/09 08:15:43;;;;;;;8.33;5.97;;;21.10;96.10;;;;;;4898896;29;20416;-75
2021/06/09 08:18:09;;;;;;;10.77;5.27;;;21.10;95.70;;;;;;4898584;29;20493;-75
2021/06/09 08:20:44;;;;;;;7.93;5.77;;;21.10;96.00;;;;;;4898487;29;21027;-75
2021/06/09 08:23:10;;;;;;;12.13;6.40;;;21.10;97.30;;;;;;4898614;29;20428;-75
2021/06/09 08:25:35;;;;;;;6.63;5.70;;;21.20;97.30;;;;;;4909783;29;20495;-75
2021/06/09 08:28:01;;;;;;;8.63;5.80;;;21.30;96.60;;;;;;4911463;29;20214;-75
2021/06/09 08:30:27;;;;;;;7.20;5.90;;;21.30;97.10;;;;;;4906535;29;20610;-75
2021/06/09 08:32:53;;;;;;;12.07;5.43;;;21.30;97.10;;;;;;4898151;29;20417;-75
2021/06/09 08:35:18;;;;;;;13.23;5.80;;;21.50;97.30;;;;;;4898142;29;20832;-75
2021/06/09 08:37:44;;;;;;;7.80;5.83;;;21.60;97.30;;;;;;4904722;29;20648;-75
2021/06/09 08:40:12;;;;;;;7.53;5.77;;;21.70;96.90;;;;;;4914982;29;20172;-75
2021/06/09 08:42:39;;;;;;;8.50;5.80;;;21.80;97.00;;;;;;4898409;29;20206;-75
2021/06/09 08:45:08;;;;;;;6.93;5.30;;;21.80;95.20;;;;;;4915352;29;20822;-75
2021/06/09 08:47:36;;;;;;;8.07;5.73;;;21.90;96.40;;;;;;4912736;29;20463;-75
2021/06/09 08:50:04;;;;;;;8.87;5.27;;;21.90;95.10;;;;;;4916482;29;20412;-75
2021/06/09 08:52:30;;;;;;;7.73;5.37;;;22.00;94.60;;;;;;4916781;29;20439;-75
2021/06/09 08:54:55;;;;;;;7.67;5.30;;;22.00;93.90;;;;;;4915543;29;20470;-75
2021/06/09 08:57:21;;;;;;;7.77;5.17;;;22.00;94.10;;;;;;4910361;29;20436;-75
2021/06/09 08:59:47;;;;;;;7.00;5.00;;;22.10;95.00;;;;;;4933546;29;20635;-75
2021/06/09 09:02:13;;;;;;;10.37;5.60;;;22.20;94.70;;;;;;4933509;29;20192;-75
2021/06/09 09:04:40;;;;;;;10.87;5.40;;;22.30;92.70;;;;;;4916267;29;20176;-75
2021/06/09 09:07:10;;;;;;;6.10;4.80;;;22.40;92.70;;;;;;4934284;29;20542;-75
2021/06/09 09:09:37;;;;;;;7.43;5.43;;;22.50;95.50;;;;;;4917201;29;20435;-75
2021/06/09 09:12:04;;;;;;;7.60;6.00;;;22.60;93.00;;;;;;4902029;29;20444;-76
2021/06/09 09:14:30;;;;;;;7.70;4.70;;;22.80;93.90;;;;;;4898649;29;20500;-77
2021/06/09 09:17:07;;;;;;;6.30;4.90;;;22.80;91.10;;;;;;4898164;29;20499;-76
2021/06/09 09:19:36;;;;;;;6.37;5.30;;;22.90;91.20;;;;;;4909932;29;20371;-75
2021/06/09 09:22:02;;;;;;;7.33;5.33;;;23.00;91.60;;;;;;4915963;29;20462;-76
2021/06/09 09:24:39;;;;;;;6.80;5.30;;;23.10;93.00;;;;;;4916355;29;20424;-76
2021/06/09 09:27:05;;;;;;;7.00;5.50;;;23.20;93.10;;;;;;4933004;29;20474;-75
2021/06/09 09:29:30;;;;;;;9.27;5.90;;;23.30;93.60;;;;;;4916169;29;20786;-74
2021/06/09 09:31:59;;;;;;;7.27;5.47;;;23.20;92.90;;;;;;4908060;29;20440;-74
2021/06/09 09:34:39;;;;;;;10.23;5.80;;;23.30;93.50;;;;;;4897094;29;20572;-75
2021/06/09 09:37:15;;;;;;;7.87;5.97;;;23.30;93.00;;;;;;4907225;29;20435;-75
2021/06/09 09:39:44;;;;;;;7.77;6.07;;;23.30;91.00;;;;;;4915413;29;20467;-75
2021/06/09 09:42:20;;;;;;;9.00;6.63;;;23.40;91.00;;;;;;4915622;29;20443;-75
2021/06/09 09:44:46;;;;;;;7.33;6.10;;;23.40;93.00;;;;;;4897180;29;20432;-75
2021/06/09 09:47:22;;;;;;;7.40;5.20;;;23.50;92.70;;;;;;4908221;29;20514;-75
2021/06/09 09:49:49;;;;;;;8.63;6.03;;;23.70;91.60;;;;;;4914982;29;20419;-75
2021/06/09 09:52:15;;;;;;;19.03;6.00;;;23.80;90.80;;;;;;4914140;29;20455;-75
2021/06/09 09:54:43;;;;;;;11.13;7.00;;;23.90;90.20;;;;;;4914092;29;20424;-74
2021/06/09 09:57:11;;;;;;;8.57;6.27;;;23.90;90.80;;;;;;4915748;29;20932;-75
2021/06/09 09:59:38;;;;;;;8.60;6.03;;;24.00;90.30;;;;;;4916077;29;20424;-75
2021/06/09 10:02:14;;;;;;;8.77;5.33;;;24.10;92.20;;;;;;4916549;29;20448;-75
2021/06/09 10:04:40;;;;;;;7.03;5.73;;;24.20;92.40;;;;;;4917603;29;20993;-75
2021/06/09 10:07:09;;;;;;;7.47;5.77;;;24.20;92.00;;;;;;4911101;29;20463;-75
2021/06/09 10:09:34;;;;;;;8.90;6.17;;;24.20;93.10;;;;;;4905849;29;20176;-75
2021/06/09 10:12:12;;;;;;;7.10;5.97;;;24.20;90.40;;;;;;4900543;29;20451;-74
2021/06/09 10:14:46;;;;;;;7.53;6.13;;;24.20;92.30;;;;;;4900462;29;20446;-75
2021/06/09 10:17:23;;;;;;;11.23;6.37;;;24.20;89.70;;;;;;4929263;29;20426;-75
2021/06/09 10:19:51;;;;;;;9.00;6.20;;;24.30;91.80;;;;;;4919244;29;20475;-75
2021/06/09 10:22:32;;;;;;;7.93;6.50;;;24.40;90.90;;;;;;4918354;29;20451;-77
2021/06/09 10:25:12;;;;;;;11.87;6.43;;;24.30;90.80;;;;;;4904117;29;20518;-77
2021/06/09 10:27:47;;;;;;;7.00;5.77;;;24.30;90.50;;;;;;4914475;29;20462;-73
2021/06/09 10:30:26;;;;;;;8.97;6.10;;;24.20;89.10;;;;;;4900574;29;20412;-73
2021/06/09 10:32:58;;;;;;;8.07;5.87;;;24.10;89.30;;;;;;4917398;29;20926;-73
2021/06/09 10:35:34;;;;;;;9.33;6.10;;;24.10;90.90;;;;;;4900257;29;20431;-73
2021/06/09 10:38:00;;;;;;;9.20;6.23;;;24.10;91.90;;;;;;4917250;29;20805;-73
2021/06/09 10:40:28;;;;;;;11.13;6.20;;;24.10;91.30;;;;;;4918790;29;20431;-74
2021/06/09 10:42:57;;;;;;;6.37;5.30;;;24.10;91.40;;;;;;4918988;29;20431;-74
2021/06/09 10:45:23;;;;;;;11.30;6.43;;;24.00;91.40;;;;;;4936091;29;20412;-74
2021/06/09 10:47:55;;;;;;;7.93;6.67;;;23.90;90.90;;;;;;4933110;29;20448;-74
2021/06/09 10:50:21;;;;;;;7.80;6.40;;;23.80;90.30;;;;;;4899986;29;20440;-75
2021/06/09 10:52:47;;;;;;;7.30;6.10;;;23.70;90.90;;;;;;4918295;29;20510;-75
2021/06/09 10:55:13;;;;;;;7.80;6.57;;;23.80;91.50;;;;;;4919236;29;20180;-75
2021/06/09 10:57:38;;;;;;;8.47;5.90;;;23.80;93.10;;;;;;4918330;29;20203;-75
2021/06/09 11:00:11;;;;;;;11.80;6.90;;;23.80;92.40;;;;;;4911611;29;20652;-75
2021/06/09 11:02:39;;;;;;;9.30;7.17;;;23.90;93.40;;;;;;4906492;29;20226;-75
2021/06/09 11:05:08;;;;;;;9.67;7.13;;;24.10;94.40;;;;;;4918661;29;20431;-75
2021/06/09 11:07:41;;;;;;;10.03;7.17;;;24.30;94.90;;;;;;4918606;29;20463;-75
2021/06/09 11:10:12;;;;;;;7.77;6.20;;;24.50;94.70;;;;;;4907468;29;20420;-76
2021/06/09 11:12:45;;;;;;;8.80;5.57;;;24.60;91.60;;;;;;4919365;29;20822;-75
2021/06/09 11:15:22;;;;;;;7.53;6.00;;;24.80;93.10;;;;;;4902364;29;20448;-75
2021/06/09 11:17:48;;;;;;;7.17;5.63;;;24.90;91.60;;;;;;4911787;29;20626;-76
2021/06/09 11:20:26;;;;;;;9.00;6.20;;;25.00;90.80;;;;;;4931291;29;20471;-76
2021/06/09 11:23:23;;;;;;;8.63;6.00;;;25.10;90.40;;;;;;4906952;29;20488;-77
2021/06/09 11:25:49;;;;;;;7.37;5.90;;;25.30;89.70;;;;;;4912651;29;20517;-77
2021/06/09 11:28:16;;;;;;;9.47;5.33;;;25.40;91.20;;;;;;4917284;29;21017;-78
2021/06/09 11:30:43;;;;;;;5.90;5.20;;;25.50;91.10;;;;;;4935796;29;20427;-76
2021/06/09 11:33:26;;;;;;;6.57;5.50;;;25.50;87.20;;;;;;4918203;29;20490;-77
2021/06/09 11:35:52;;;;;;;6.73;5.53;;;25.50;84.60;;;;;;4918362;29;20434;-75
2021/06/09 11:38:19;;;;;;;6.43;5.10;;;25.50;88.90;;;;;;4924846;29;20504;-76
2021/06/09 11:40:58;;;;;;;8.13;5.30;;;25.60;90.50;;;;;;4898960;29;20300;-75
2021/06/09 11:43:32;;;;;;;6.87;5.40;;;25.60;88.70;;;;;;4899332;29;20800;-76
2021/06/09 11:46:03;;;;;;;6.90;4.93;;;25.70;88.60;;;;;;4899286;29;20428;-76
2021/06/09 11:48:30;;;;;;;8.77;5.57;;;25.70;85.40;;;;;;4899446;29;20472;-76
2021/06/09 11:51:22;;;;;;;7.63;6.10;;;25.60;85.50;;;;;;4916130;29;20428;-76
2021/06/09 11:53:49;;;;;;;6.90;5.63;;;25.50;86.90;;;;;;4898689;29;20511;-77
2021/06/09 11:56:35;;;;;;;6.57;5.30;;;25.50;85.40;;;;;;4910129;29;20430;-76
2021/06/09 11:59:04;;;;;;;6.90;5.50;;;25.50;86.40;;;;;;4917875;29;20427;-76
2021/06/09 12:01:43;;;;;;;12.80;5.60;;;25.60;88.20;;;;;;4918133;29;20538;-76
2021/06/09 12:04:10;;;;;;;8.83;5.43;;;25.70;86.10;;;;;;4916081;29;20469;-76
2021/06/09 12:06:45;;;;;;;5.57;4.70;;;25.90;86.80;;;;;;4917545;29;20432;-75
2021/06/09 12:09:11;;;;;;;8.57;5.33;;;25.90;85.50;;;;;;4917847;29;20431;-76
2021/06/09 12:11:43;;;;;;;5.60;5.30;;;26.00;87.00;;;;;;4917409;29;20434;-76
2021/06/09 12:14:20;;;;;;;7.43;5.83;;;26.10;85.30;;;;;;4917662;29;20175;-76
2021/06/09 12:16:47;;;;;;;6.50;5.40;;;26.10;86.10;;;;;;4909074;29;20422;-76
2021/06/09 12:19:27;;;;;;;11.20;5.63;;;26.20;87.10;;;;;;4898457;29;20496;-77
2021/06/09 12:22:00;;;;;;;6.93;4.70;;;26.30;86.70;;;;;;4898700;29;20484;-76
2021/06/09 12:24:26;;;;;;;13.07;5.73;;;26.40;84.60;;;;;;4897749;29;20459;-75
2021/06/09 12:27:01;;;;;;;10.80;5.63;;;26.30;84.20;;;;;;4898694;29;20833;-76
2021/06/09 12:29:31;;;;;;;5.73;5.03;;;26.20;84.90;;;;;;4915550;29;20176;-75
2021/06/09 12:31:59;;;;;;;8.03;5.10;;;26.20;84.40;;;;;;4915696;29;20424;-75
2021/06/09 12:34:28;;;;;;;7.40;5.40;;;26.10;84.20;;;;;;4898386;29;20800;-76
2021/06/09 12:36:56;;;;;;;6.20;5.23;;;26.10;84.00;;;;;;4915356;29;20417;-75
2021/06/09 12:39:24;;;;;;;11.60;5.37;;;26.20;85.20;;;;;;4898402;29;20408;-76
2021/06/09 12:41:50;;;;;;;7.77;5.90;;;26.20;85.00;;;;;;4898028;29;20524;-76
2021/06/09 12:44:17;;;;;;;6.63;5.43;;;26.30;86.80;;;;;;4898318;29;20511;-76
2021/06/09 12:47:00;;;;;;;6.47;6.07;;;26.40;86.70;;;;;;4898863;29;20181;-76
2021/06/09 12:49:32;;;;;;;8.83;5.20;;;26.60;84.50;;;;;;4908935;29;20428;-76
2021/06/09 12:52:07;;;;;;;9.13;5.20;;;26.60;85.30;;;;;;4916838;29;20443;-76
2021/06/09 12:54:32;;;;;;;6.80;6.37;;;26.70;85.30;;;;;;4899605;29;20978;-76
2021/06/09 12:56:59;;;;;;;6.90;5.80;;;26.80;85.60;;;;;;4934067;29;20451;-76
2021/06/09 12:59:33;;;;;;;6.43;5.27;;;26.80;83.00;;;;;;4933748;29;20707;-76
2021/06/09 13:01:59;;;;;;;7.23;5.87;;;26.80;84.80;;;;;;4907910;29;20452;-76
2021/06/09 13:04:51;;;;;;;9.10;5.40;;;27.00;88.20;;;;;;4906309;29;20440;-75
2021/06/09 13:07:23;;;;;;;9.80;5.40;;;27.10;84.00;;;;;;4930806;29;20467;-75
2021/06/09 13:09:57;;;;;;;6.23;5.67;;;27.10;83.10;;;;;;4933990;29;20446;-75
2021/06/09 13:12:29;;;;;;;11.97;5.90;;;27.10;82.70;;;;;;4916876;29;20436;-75
2021/06/09 13:14:56;;;;;;;9.30;5.60;;;27.10;83.00;;;;;;4933903;29;20991;-75
2021/06/09 13:17:22;;;;;;;7.77;6.00;;;27.30;83.90;;;;;;4916873;29;20424;-76
2021/06/09 13:19:48;;;;;;;7.43;5.20;;;27.40;81.80;;;;;;4916225;29;20567;-76
2021/06/09 13:22:16;;;;;;;5.80;4.93;;;27.50;84.00;;;;;;4916442;29;20227;-76
2021/06/09 13:24:43;;;;;;;5.83;5.47;;;27.50;81.00;;;;;;4912771;29;20267;-76
2021/06/09 13:27:08;;;;;;;5.33;5.03;;;27.50;82.40;;;;;;4897780;29;20468;-76
2021/06/09 13:29:43;;;;;;;6.57;5.57;;;27.50;83.50;;;;;;4897188;29;20432;-75
2021/06/09 13:32:27;;;;;;;7.53;5.20;;;27.60;81.80;;;;;;4897771;29;20203;-76
2021/06/09 13:34:54;;;;;;;5.80;5.00;;;27.70;81.00;;;;;;4931505;29;20425;-74
2021/06/09 13:37:24;;;;;;;7.60;5.00;;;27.70;78.00;;;;;;4916496;29;20413;-75